createdAt,value
2022-08-26T00:01:56.613Z,25.87
2022-08-26T00:04:25.356Z,25.94
2022-08-26T00:06:55.707Z,25.95
2022-08-26T00:09:24.636Z,25.84
2022-08-26T00:11:53.876Z,25.78
2022-08-26T00:14:27.026Z,25.79
2022-08-26T00:16:57.714Z,25.99
2022-08-26T00:19:25.062Z,25.97
2022-08-26T00:21:52.641Z,25.89
2022-08-26T00:24:21.792Z,25.77
2022-08-26T00:26:49.660Z,25.71
2022-08-26T00:29:18.197Z,25.73
2022-08-26T00:31:45.778Z,25.92
2022-08-26T00:34:15.330Z,25.97
2022-08-26T00:36:43.705Z,26.17
2022-08-26T00:39:11.338Z,26.23
2022-08-26T00:41:41.118Z,25.92
2022-08-26T00:44:11.038Z,25.81
2022-08-26T00:47:00.097Z,25.57
2022-08-26T00:49:39.119Z,25.45
2022-08-26T00:52:15.692Z,25.42
2022-08-26T00:55:02.861Z,25.47
2022-08-26T00:57:31.823Z,25.53
2022-08-26T01:00:01.492Z,25.34
2022-08-26T01:02:29.168Z,25.31
2022-08-26T01:05:01.325Z,25.33
2022-08-26T01:07:32.931Z,25.20
2022-08-26T01:10:07.902Z,25.34
2022-08-26T01:12:41.053Z,25.39
2022-08-26T01:15:11.599Z,25.50
2022-08-26T01:17:39.523Z,25.47
2022-08-26T01:20:18.721Z,25.48
2022-08-26T01:22:57.638Z,25.39
2022-08-26T01:25:28.407Z,25.65
2022-08-26T01:27:58.846Z,25.50
2022-08-26T01:30:31.162Z,25.46
2022-08-26T01:33:03.024Z,25.23
2022-08-26T01:35:30.849Z,25.05
2022-08-26T01:38:00.630Z,24.95
2022-08-26T01:40:33.762Z,24.89
2022-08-26T01:43:02.309Z,24.84
2022-08-26T01:45:33.284Z,24.92
2022-08-26T01:48:04.480Z,24.91
2022-08-26T01:50:34.469Z,25.04
2022-08-26T01:53:09.450Z,25.19
2022-08-26T01:55:41.629Z,25.34
2022-08-26T01:58:23.504Z,25.09
2022-08-26T02:00:51.835Z,25.16
2022-08-26T02:03:22.279Z,25.13
2022-08-26T02:05:58.118Z,25.03
2022-08-26T02:08:31.085Z,25.14
2022-08-26T02:10:58.583Z,24.99
2022-08-26T02:13:30.075Z,25.07
2022-08-26T02:16:00.857Z,24.97
2022-08-26T02:18:30.336Z,25.01
2022-08-26T02:20:57.663Z,25.05
2022-08-26T02:23:27.036Z,25.09
2022-08-26T02:26:09.283Z,25.19
2022-08-26T02:28:44.568Z,25.22
2022-08-26T02:31:12.653Z,25.14
2022-08-26T02:33:43.063Z,24.98
2022-08-26T02:36:10.876Z,24.94
2022-08-26T02:38:40.703Z,24.79
2022-08-26T02:41:11.237Z,24.74
2022-08-26T02:43:38.557Z,24.70
2022-08-26T02:46:06.015Z,24.71
2022-08-26T02:48:33.694Z,24.68
2022-08-26T02:51:01.888Z,24.76
2022-08-26T02:53:32.068Z,24.84
2022-08-26T02:56:04.672Z,24.90
2022-08-26T02:58:32.468Z,24.92
2022-08-26T03:00:59.802Z,24.98
2022-08-26T03:03:29.198Z,25.04
2022-08-26T03:05:57.869Z,25.03
2022-08-26T03:08:25.355Z,24.98
2022-08-26T03:10:52.966Z,25.00
2022-08-26T03:13:20.414Z,25.02
2022-08-26T03:15:47.859Z,24.99
2022-08-26T03:18:16.034Z,25.02
2022-08-26T03:20:43.989Z,24.98
2022-08-26T03:23:12.544Z,24.95
2022-08-26T03:25:40.143Z,24.96
2022-08-26T03:28:07.711Z,25.05
2022-08-26T03:30:44.639Z,25.01
2022-08-26T03:33:14.542Z,24.91
2022-08-26T03:35:43.678Z,24.78
2022-08-26T03:38:11.787Z,24.80
2022-08-26T03:40:39.832Z,24.73
2022-08-26T03:43:10.191Z,24.75
2022-08-26T03:45:38.253Z,24.59
2022-08-26T03:48:06.020Z,24.39
2022-08-26T03:50:36.011Z,24.37
2022-08-26T03:53:04.130Z,24.35
2022-08-26T03:55:33.237Z,24.34
2022-08-26T03:58:02.087Z,24.33
2022-08-26T04:00:30.330Z,24.34
2022-08-26T04:02:57.935Z,24.33
2022-08-26T04:05:25.387Z,24.30
2022-08-26T04:07:52.909Z,24.38
2022-08-26T04:10:29.121Z,24.35
2022-08-26T04:12:59.392Z,24.34
2022-08-26T04:15:27.140Z,24.44
2022-08-26T04:17:55.965Z,24.40
2022-08-26T04:20:25.459Z,24.25
2022-08-26T04:22:53.110Z,24.23
2022-08-26T04:25:21.266Z,24.28
2022-08-26T04:27:48.661Z,24.25
2022-08-26T04:30:18.039Z,24.35
2022-08-26T04:32:45.620Z,24.32
2022-08-26T04:35:12.923Z,24.33
2022-08-26T04:37:43.039Z,24.21
2022-08-26T04:40:11.146Z,24.21
2022-08-26T04:42:38.575Z,24.23
2022-08-26T04:45:10.243Z,24.31
2022-08-26T04:47:38.840Z,24.40
2022-08-26T04:50:08.351Z,24.50
2022-08-26T04:52:38.858Z,24.61
2022-08-26T04:55:08.595Z,24.62
2022-08-26T04:57:36.376Z,24.59
2022-08-26T05:00:06.690Z,24.61
2022-08-26T05:02:34.423Z,24.58
2022-08-26T05:05:02.647Z,24.62
2022-08-26T05:07:31.388Z,24.69
2022-08-26T05:09:59.349Z,24.72
2022-08-26T05:12:28.240Z,24.77
2022-08-26T05:14:55.799Z,24.71
2022-08-26T05:17:23.406Z,24.79
2022-08-26T05:19:50.781Z,24.85
2022-08-26T05:22:18.324Z,24.87
2022-08-26T05:24:46.474Z,24.89
2022-08-26T05:27:14.331Z,24.92
2022-08-26T05:29:42.410Z,25.00
2022-08-26T05:32:11.895Z,25.01
2022-08-26T05:34:39.441Z,25.15
2022-08-26T05:37:10.319Z,25.27
2022-08-26T05:39:38.199Z,25.37
2022-08-26T05:42:08.601Z,25.46
2022-08-26T05:44:53.876Z,25.51
2022-08-26T05:47:24.227Z,25.68
2022-08-26T05:49:52.430Z,25.67
2022-08-26T05:52:20.359Z,25.90
2022-08-26T05:54:47.837Z,25.91
2022-08-26T05:57:15.956Z,25.85
2022-08-26T05:59:45.912Z,25.77
2022-08-26T06:02:13.397Z,25.74
2022-08-26T06:04:41.011Z,25.90
2022-08-26T06:07:11.508Z,26.09
2022-08-26T06:09:39.694Z,26.21
2022-08-26T06:12:07.268Z,26.30
2022-08-26T06:14:36.053Z,26.28
2022-08-26T06:17:03.402Z,26.26
2022-08-26T06:19:33.057Z,26.35
2022-08-26T06:22:23.281Z,26.38
2022-08-26T06:25:09.927Z,26.40
2022-08-26T06:27:37.469Z,26.54
2022-08-26T06:30:05.208Z,26.55
2022-08-26T06:32:33.662Z,26.79
2022-08-26T06:35:01.059Z,26.93
2022-08-26T06:37:28.902Z,26.99
2022-08-26T06:39:56.624Z,27.27
2022-08-26T06:42:25.109Z,27.52
2022-08-26T06:44:52.508Z,28.17
2022-08-26T06:47:20.293Z,29.18
2022-08-26T06:49:48.303Z,29.80
2022-08-26T06:52:22.971Z,31.20
2022-08-26T06:54:52.026Z,32.07
2022-08-26T06:57:20.460Z,33.03
2022-08-26T06:59:48.603Z,34.34
2022-08-26T07:02:19.073Z,34.33
2022-08-26T07:04:48.123Z,33.12
2022-08-26T07:07:18.568Z,32.20
2022-08-26T07:09:49.352Z,31.67
2022-08-26T07:12:20.319Z,31.20
2022-08-26T07:14:48.433Z,31.14
2022-08-26T07:17:16.324Z,31.15
2022-08-26T07:19:43.899Z,30.97
2022-08-26T07:22:11.302Z,30.89
2022-08-26T07:24:42.674Z,30.91
2022-08-26T07:27:15.905Z,31.17
2022-08-26T07:29:45.017Z,31.12
2022-08-26T07:32:14.580Z,31.25
2022-08-26T07:34:43.168Z,31.54
2022-08-26T07:37:11.640Z,31.71
2022-08-26T07:39:41.618Z,31.96
2022-08-26T07:42:14.015Z,31.85
2022-08-26T07:44:42.224Z,32.09
2022-08-26T07:47:25.515Z,32.11
2022-08-26T07:49:55.795Z,31.85
2022-08-26T07:52:26.888Z,31.94
2022-08-26T07:54:59.011Z,32.12
2022-08-26T07:57:27.547Z,32.76
2022-08-26T07:59:56.064Z,32.92
2022-08-26T08:02:25.469Z,32.95
2022-08-26T08:04:53.110Z,33.02
2022-08-26T08:07:21.694Z,32.96
2022-08-26T08:10:09.875Z,33.03
2022-08-26T08:12:40.329Z,32.94
2022-08-26T08:15:10.273Z,33.68
2022-08-26T08:17:38.680Z,33.80
2022-08-26T08:20:07.943Z,33.81
2022-08-26T08:22:35.624Z,34.00
2022-08-26T08:25:06.338Z,33.84
2022-08-26T08:27:37.077Z,34.10
2022-08-26T08:30:06.224Z,34.28
2022-08-26T08:32:34.163Z,33.99
2022-08-26T08:35:02.666Z,33.90
2022-08-26T08:37:38.326Z,34.14
2022-08-26T08:40:07.901Z,34.08
2022-08-26T08:42:42.868Z,34.05
2022-08-26T08:45:26.148Z,34.02
2022-08-26T08:47:58.126Z,34.06
2022-08-26T08:50:35.481Z,34.35
2022-08-26T08:53:17.686Z,35.08
2022-08-26T08:55:48.074Z,34.50
2022-08-26T08:58:21.025Z,34.42
2022-08-26T09:01:04.107Z,34.54
2022-08-26T09:03:58.076Z,34.70
2022-08-26T09:06:28.670Z,34.38
2022-08-26T09:08:57.281Z,34.58
2022-08-26T09:11:25.144Z,35.09
2022-08-26T09:13:55.405Z,35.39
2022-08-26T09:16:23.489Z,35.49
2022-08-26T09:19:11.133Z,35.65
2022-08-26T09:21:38.667Z,35.60
2022-08-26T09:24:07.768Z,35.90
2022-08-26T09:26:38.649Z,35.65
2022-08-26T09:29:14.253Z,35.65
2022-08-26T09:31:42.552Z,36.07
2022-08-26T09:34:23.708Z,35.07
2022-08-26T09:36:53.585Z,35.42
2022-08-26T09:39:24.924Z,35.64
2022-08-26T09:42:19.337Z,35.71
2022-08-26T09:45:03.587Z,35.43
2022-08-26T09:47:47.884Z,35.27
2022-08-26T09:50:36.016Z,35.26
2022-08-26T09:53:12.945Z,35.61
2022-08-26T09:55:43.196Z,35.12
2022-08-26T09:58:16.839Z,34.17
2022-08-26T10:00:56.904Z,35.01
2022-08-26T10:03:28.687Z,35.44
2022-08-26T10:06:05.184Z,36.09
2022-08-26T10:08:34.249Z,35.87
2022-08-26T10:11:11.220Z,36.20
2022-08-26T10:13:43.714Z,35.99
2022-08-26T10:16:20.615Z,35.51
2022-08-26T10:19:11.709Z,35.50
2022-08-26T10:21:49.471Z,35.81
2022-08-26T10:24:50.826Z,35.73
2022-08-26T10:27:30.318Z,35.55
2022-08-26T10:30:06.279Z,36.27
2022-08-26T10:32:40.851Z,35.73
2022-08-26T10:35:12.868Z,36.40
2022-08-26T10:37:51.003Z,36.37
2022-08-26T10:40:29.295Z,36.33
2022-08-26T10:43:11.044Z,36.47
2022-08-26T10:45:46.934Z,35.95
2022-08-26T10:48:24.493Z,36.82
2022-08-26T10:50:51.968Z,36.52
2022-08-26T10:53:34.288Z,35.78
2022-08-26T10:56:15.825Z,35.83
2022-08-26T10:58:46.295Z,35.94
2022-08-26T11:01:42.205Z,34.98
2022-08-26T11:04:42.295Z,35.38
2022-08-26T11:07:56.125Z,34.88
2022-08-26T11:10:24.436Z,35.42
2022-08-26T11:13:03.780Z,35.13
2022-08-26T11:15:31.653Z,35.00
2022-08-26T11:18:04.903Z,35.04
2022-08-26T11:20:47.152Z,35.08
2022-08-26T11:23:20.570Z,35.50
2022-08-26T11:26:10.962Z,35.33
2022-08-26T11:28:40.123Z,35.13
2022-08-26T11:31:40.458Z,34.56
2022-08-26T11:34:13.375Z,34.43
2022-08-26T11:36:52.150Z,34.62
2022-08-26T11:39:24.148Z,34.61
2022-08-26T11:41:54.423Z,34.68
2022-08-26T11:44:24.972Z,34.40
2022-08-26T11:46:53.920Z,34.86
2022-08-26T11:49:21.598Z,35.67
2022-08-26T11:51:48.946Z,35.81
2022-08-26T11:54:30.493Z,34.33
2022-08-26T11:57:09.513Z,34.06
2022-08-26T11:59:42.342Z,34.31
2022-08-26T12:02:17.717Z,34.24
2022-08-26T12:04:48.894Z,34.88
2022-08-26T12:07:18.499Z,34.92
2022-08-26T12:09:54.868Z,35.14
2022-08-26T12:12:35.223Z,35.06
2022-08-26T12:15:12.780Z,35.02
2022-08-26T12:17:41.875Z,35.34
2022-08-26T12:20:29.053Z,35.25
2022-08-26T12:22:59.081Z,35.01
2022-08-26T12:25:28.012Z,34.80
2022-08-26T12:28:05.552Z,35.20
2022-08-26T12:30:32.991Z,35.02
2022-08-26T12:33:22.205Z,34.87
2022-08-26T12:35:54.790Z,34.88
2022-08-26T12:38:26.130Z,34.73
2022-08-26T12:40:53.910Z,34.99
2022-08-26T12:43:41.022Z,34.94
2022-08-26T12:46:16.461Z,35.24
2022-08-26T12:48:47.560Z,35.20
2022-08-26T12:51:25.518Z,35.86
2022-08-26T12:53:54.042Z,35.61
2022-08-26T12:56:24.482Z,35.52
2022-08-26T12:59:02.832Z,35.68
2022-08-26T13:01:38.160Z,35.49
2022-08-26T13:04:06.933Z,35.41
2022-08-26T13:06:35.062Z,35.88
2022-08-26T13:09:25.136Z,35.89
2022-08-26T13:11:53.184Z,35.47
2022-08-26T13:14:24.371Z,35.69
2022-08-26T13:16:52.823Z,35.49
2022-08-26T13:19:22.914Z,35.13
2022-08-26T13:21:56.657Z,34.78
2022-08-26T13:24:38.437Z,35.03
2022-08-26T13:27:07.885Z,35.13
2022-08-26T13:29:35.737Z,35.55
2022-08-26T13:32:04.721Z,35.11
2022-08-26T13:34:32.593Z,35.35
2022-08-26T13:36:59.974Z,35.40
2022-08-26T13:39:27.502Z,35.11
2022-08-26T13:41:54.946Z,35.15
2022-08-26T13:44:22.302Z,35.00
2022-08-26T13:46:49.757Z,34.97
2022-08-26T13:49:17.283Z,34.50
2022-08-26T13:51:44.618Z,34.63
2022-08-26T13:54:11.925Z,34.86
2022-08-26T13:56:39.764Z,34.66
2022-08-26T13:59:07.148Z,34.60
2022-08-26T14:01:35.722Z,34.82
2022-08-26T14:04:03.369Z,35.00
2022-08-26T14:06:30.764Z,35.34
2022-08-26T14:08:58.635Z,35.36
2022-08-26T14:11:26.980Z,35.12
2022-08-26T14:13:54.351Z,34.95
2022-08-26T14:16:33.168Z,34.70
2022-08-26T14:19:02.146Z,34.99
2022-08-26T14:21:32.183Z,34.88
2022-08-26T14:24:01.056Z,34.45
2022-08-26T14:26:29.936Z,34.47
2022-08-26T14:28:59.078Z,34.22
2022-08-26T14:31:29.326Z,34.06
2022-08-26T14:34:01.056Z,34.07
2022-08-26T14:36:28.506Z,33.99
2022-08-26T14:38:58.240Z,34.33
2022-08-26T14:41:27.115Z,34.17
2022-08-26T14:44:01.999Z,34.21
2022-08-26T14:46:31.725Z,33.89
2022-08-26T14:49:02.054Z,33.98
2022-08-26T14:51:30.380Z,33.91
2022-08-26T14:54:12.897Z,33.93
2022-08-26T14:56:52.110Z,33.84
2022-08-26T14:59:28.253Z,33.79
2022-08-26T15:01:56.624Z,33.72
2022-08-26T15:04:25.281Z,33.64
2022-08-26T15:06:56.311Z,33.79
2022-08-26T15:09:24.010Z,33.54
2022-08-26T15:11:52.811Z,33.44
2022-08-26T15:14:21.581Z,33.40
2022-08-26T15:16:51.080Z,33.33
2022-08-26T15:19:19.330Z,33.06
2022-08-26T15:21:47.688Z,33.09
2022-08-26T15:24:20.063Z,32.96
2022-08-26T15:26:47.727Z,33.13
2022-08-26T15:29:15.414Z,32.90
2022-08-26T15:31:43.088Z,32.66
2022-08-26T15:34:16.434Z,32.74
2022-08-26T15:36:46.353Z,32.48
2022-08-26T15:39:15.593Z,32.41
2022-08-26T15:41:42.903Z,32.55
2022-08-26T15:44:11.745Z,32.51
2022-08-26T15:46:39.559Z,32.36
2022-08-26T15:49:07.076Z,32.21
2022-08-26T15:51:45.837Z,32.25
2022-08-26T15:54:16.681Z,32.04
2022-08-26T15:56:45.642Z,31.99
2022-08-26T15:59:16.070Z,31.90
2022-08-26T16:01:44.334Z,31.87
2022-08-26T16:04:12.013Z,31.85
2022-08-26T16:06:40.941Z,31.79
2022-08-26T16:09:09.727Z,31.62
2022-08-26T16:11:38.050Z,31.61
2022-08-26T16:14:06.004Z,31.66
2022-08-26T16:16:33.441Z,31.48
2022-08-26T16:19:05.554Z,31.38
2022-08-26T16:21:35.169Z,31.37
2022-08-26T16:24:03.546Z,31.30
2022-08-26T16:26:34.737Z,31.28
2022-08-26T16:29:04.646Z,31.39
2022-08-26T16:31:32.255Z,31.38
2022-08-26T16:33:59.788Z,31.40
2022-08-26T16:36:27.318Z,31.45
2022-08-26T16:38:56.357Z,31.42
2022-08-26T16:41:25.408Z,31.44
2022-08-26T16:43:53.410Z,31.42
2022-08-26T16:46:23.678Z,31.49
2022-08-26T16:48:53.484Z,31.30
2022-08-26T16:51:23.069Z,31.25
2022-08-26T16:53:51.842Z,31.29
2022-08-26T16:56:22.621Z,31.28
2022-08-26T16:58:50.682Z,31.28
2022-08-26T17:01:18.261Z,31.32
2022-08-26T17:03:45.638Z,31.33
2022-08-26T17:06:13.191Z,31.38
2022-08-26T17:08:41.932Z,31.30
2022-08-26T17:11:09.382Z,31.22
2022-08-26T17:13:38.100Z,31.14
2022-08-26T17:16:08.467Z,31.08
2022-08-26T17:18:37.334Z,31.04
2022-08-26T17:21:09.338Z,31.04
2022-08-26T17:23:38.329Z,31.07
2022-08-26T17:26:05.877Z,31.00
2022-08-26T17:28:33.626Z,30.94
2022-08-26T17:31:01.791Z,30.93
2022-08-26T17:33:29.677Z,30.88
2022-08-26T17:35:57.539Z,30.78
2022-08-26T17:38:25.706Z,30.64
2022-08-26T17:40:53.507Z,30.81
2022-08-26T17:43:20.882Z,30.78
2022-08-26T17:45:48.261Z,30.75
2022-08-26T17:48:15.684Z,30.62
2022-08-26T17:50:43.261Z,30.54
2022-08-26T17:53:19.105Z,30.35
2022-08-26T17:55:49.897Z,30.40
2022-08-26T17:58:23.371Z,30.42
2022-08-26T18:00:52.812Z,30.40
2022-08-26T18:03:20.393Z,30.20
2022-08-26T18:05:49.978Z,29.98
2022-08-26T18:08:17.678Z,30.11
2022-08-26T18:10:45.103Z,30.24
2022-08-26T18:13:14.725Z,30.30
2022-08-26T18:15:45.301Z,30.25
2022-08-26T18:18:14.347Z,30.27
2022-08-26T18:20:43.601Z,30.27
2022-08-26T18:23:12.383Z,30.20
2022-08-26T18:25:43.508Z,30.13
2022-08-26T18:28:10.980Z,30.17
2022-08-26T18:30:38.586Z,30.01
2022-08-26T18:33:06.028Z,29.92
2022-08-26T18:35:39.341Z,29.86
2022-08-26T18:38:11.264Z,29.78
2022-08-26T18:40:41.631Z,29.75
2022-08-26T18:43:09.321Z,29.77
2022-08-26T18:45:37.021Z,29.79
2022-08-26T18:48:05.124Z,29.83
2022-08-26T18:50:32.598Z,29.84
2022-08-26T18:53:01.886Z,29.82
2022-08-26T18:55:29.197Z,29.81
2022-08-26T18:57:56.544Z,29.76
2022-08-26T19:00:23.983Z,29.71
2022-08-26T19:02:52.058Z,29.65
2022-08-26T19:05:22.979Z,29.70
2022-08-26T19:07:51.808Z,29.55
2022-08-26T19:10:19.154Z,29.44
2022-08-26T19:12:46.475Z,29.45
2022-08-26T19:15:19.602Z,29.45
2022-08-26T19:17:48.130Z,29.31
2022-08-26T19:20:15.635Z,29.25
2022-08-26T19:22:43.165Z,29.10
2022-08-26T19:25:10.546Z,28.95
2022-08-26T19:27:37.922Z,28.75
2022-08-26T19:30:07.067Z,28.55
2022-08-26T19:32:34.429Z,28.50
2022-08-26T19:35:01.922Z,28.42
2022-08-26T19:37:29.355Z,28.41
2022-08-26T19:39:56.822Z,28.37
2022-08-26T19:42:24.177Z,28.45
2022-08-26T19:45:07.386Z,28.52
2022-08-26T19:47:39.830Z,28.50
2022-08-26T19:50:11.708Z,28.67
2022-08-26T19:52:41.319Z,28.69
2022-08-26T19:55:11.435Z,28.65
2022-08-26T19:57:39.996Z,28.54
2022-08-26T20:00:11.750Z,28.47
2022-08-26T20:02:39.683Z,28.45
2022-08-26T20:05:08.654Z,28.36
2022-08-26T20:07:36.215Z,28.44
2022-08-26T20:10:05.707Z,28.43
2022-08-26T20:12:35.560Z,28.31
2022-08-26T20:15:05.066Z,28.33
2022-08-26T20:17:32.964Z,28.28
2022-08-26T20:20:28.428Z,28.23
2022-08-26T20:23:04.400Z,28.29
2022-08-26T20:25:33.259Z,28.17
2022-08-26T20:28:00.871Z,28.04
2022-08-26T20:30:28.368Z,27.74
2022-08-26T20:32:56.239Z,27.53
2022-08-26T20:35:24.006Z,27.47
2022-08-26T20:37:51.427Z,27.40
2022-08-26T20:40:19.026Z,27.45
2022-08-26T20:42:46.509Z,27.52
2022-08-26T20:45:13.993Z,27.56
2022-08-26T20:47:41.748Z,27.69
2022-08-26T20:50:09.825Z,27.71
2022-08-26T20:52:37.230Z,27.68
2022-08-26T20:55:05.091Z,27.66
2022-08-26T20:57:32.433Z,27.59
2022-08-26T21:00:01.004Z,27.50
2022-08-26T21:02:28.446Z,27.39
2022-08-26T21:04:55.815Z,27.25
2022-08-26T21:07:23.257Z,27.25
2022-08-26T21:09:51.611Z,27.32
2022-08-26T21:12:19.064Z,27.40
2022-08-26T21:14:49.555Z,27.57
2022-08-26T21:17:17.291Z,27.58
2022-08-26T21:19:44.711Z,27.66
2022-08-26T21:22:12.370Z,27.57
2022-08-26T21:24:40.146Z,27.59
2022-08-26T21:27:07.449Z,27.52
2022-08-26T21:29:36.183Z,27.54
2022-08-26T21:32:04.632Z,27.53
2022-08-26T21:34:32.684Z,27.55
2022-08-26T21:37:00.633Z,27.49
2022-08-26T21:39:28.237Z,27.48
2022-08-26T21:41:55.706Z,27.56
2022-08-26T21:44:23.046Z,27.57
2022-08-26T21:46:50.797Z,27.34
2022-08-26T21:49:18.122Z,27.22
2022-08-26T21:51:48.280Z,27.23
2022-08-26T21:54:16.131Z,27.17
2022-08-26T21:56:46.821Z,27.23
2022-08-26T21:59:18.974Z,27.25
2022-08-26T22:01:46.594Z,27.19
2022-08-26T22:04:13.982Z,27.06
2022-08-26T22:06:47.688Z,27.00
2022-08-26T22:09:17.887Z,26.88
2022-08-26T22:11:46.344Z,26.71
2022-08-26T22:14:15.287Z,26.82
2022-08-26T22:16:50.249Z,26.84
2022-08-26T22:19:20.142Z,26.76
2022-08-26T22:21:50.117Z,26.75
2022-08-26T22:24:19.904Z,26.76
2022-08-26T22:26:48.469Z,26.70
2022-08-26T22:29:16.953Z,26.71
2022-08-26T22:31:44.823Z,26.72
2022-08-26T22:34:17.141Z,26.68
2022-08-26T22:36:47.600Z,26.61
2022-08-26T22:39:17.980Z,26.50
2022-08-26T22:41:48.551Z,26.52
2022-08-26T22:44:17.680Z,26.50
2022-08-26T22:46:46.206Z,26.43
2022-08-26T22:49:18.235Z,26.46
2022-08-26T22:51:46.535Z,26.51
2022-08-26T22:54:14.723Z,26.61
2022-08-26T22:56:43.815Z,26.51
2022-08-26T22:59:12.121Z,26.38
2022-08-26T23:01:42.989Z,26.30
2022-08-26T23:04:11.168Z,26.26
2022-08-26T23:06:41.206Z,26.27
2022-08-26T23:09:09.984Z,26.13
2022-08-26T23:11:39.806Z,26.11
2022-08-26T23:14:10.233Z,26.17
2022-08-26T23:16:41.576Z,26.06
2022-08-26T23:19:11.662Z,26.02
2022-08-26T23:21:39.701Z,26.02
2022-08-26T23:24:07.767Z,25.93
2022-08-26T23:26:36.408Z,25.90
2022-08-26T23:29:06.187Z,25.90
2022-08-26T23:31:34.045Z,25.89
2022-08-26T23:34:20.290Z,25.89
2022-08-26T23:36:47.920Z,25.91
2022-08-26T23:39:15.474Z,25.93
2022-08-26T23:41:42.921Z,25.83
2022-08-26T23:44:11.595Z,25.85
2022-08-26T23:46:39.096Z,25.79
2022-08-26T23:49:06.750Z,25.80
2022-08-26T23:51:52.745Z,25.74
2022-08-26T23:54:20.121Z,25.70
2022-08-26T23:56:47.445Z,25.68
2022-08-26T23:59:15.606Z,25.74
